sensor_id;sensor_type;location;lat;lon;timestamp;P1;durP1;ratioP1;P2;durP2;ratioP2
41643;SDS011;44236;48.098;11.582;2023-06-22T00:00:48;7.53;;;2.92;;
41643;SDS011;44236;48.098;11.582;2023-06-22T00:03:14;10.43;;;3.20;;
41643;SDS011;44236;48.098;11.582;2023-06-22T00:05:40;7.00;;;2.85;;
41643;SDS011;44236;48.098;11.582;2023-06-22T00:08:06;6.85;;;3.35;;
41643;SDS011;44236;48.098;11.582;2023-06-22T00:10:32;11.65;;;3.08;;
41643;SDS011;44236;48.098;11.582;2023-06-22T00:12:57;14.13;;;3.55;;
41643;SDS011;44236;48.098;11.582;2023-06-22T00:15:23;9.18;;;3.55;;
41643;SDS011;44236;48.098;11.582;2023-06-22T00:17:49;10.95;;;3.25;;
41643;SDS011;44236;48.098;11.582;2023-06-22T00:20:15;13.63;;;4.10;;
41643;SDS011;44236;48.098;11.582;2023-06-22T00:22:43;11.07;;;3.00;;
41643;SDS011;44236;48.098;11.582;2023-06-22T00:25:09;13.05;;;2.85;;
41643;SDS011;44236;48.098;11.582;2023-06-22T00:27:35;12.52;;;4.43;;
41643;SDS011;44236;48.098;11.582;2023-06-22T00:30:01;11.57;;;4.00;;
41643;SDS011;44236;48.098;11.582;2023-06-22T00:32:28;12.02;;;2.90;;
41643;SDS011;44236;48.098;11.582;2023-06-22T00:34:53;11.50;;;3.35;;
41643;SDS011;44236;48.098;11.582;2023-06-22T00:37:19;8.75;;;3.50;;
41643;SDS011;44236;48.098;11.582;2023-06-22T00:39:47;11.57;;;4.13;;
41643;SDS011;44236;48.098;11.582;2023-06-22T00:42:13;14.27;;;3.75;;
41643;SDS011;44236;48.098;11.582;2023-06-22T00:44:39;10.20;;;2.97;;
41643;SDS011;44236;48.098;11.582;2023-06-22T00:47:05;12.27;;;3.90;;
41643;SDS011;44236;48.098;11.582;2023-06-22T00:49:32;10.93;;;3.65;;
41643;SDS011;44236;48.098;11.582;2023-06-22T00:51:57;15.23;;;4.13;;
41643;SDS011;44236;48.098;11.582;2023-06-22T00:54:24;8.55;;;3.05;;
41643;SDS011;44236;48.098;11.582;2023-06-22T00:56:53;9.73;;;3.60;;
41643;SDS011;44236;48.098;11.582;2023-06-22T00:59:21;10.48;;;4.18;;
41643;SDS011;44236;48.098;11.582;2023-06-22T01:01:48;8.50;;;3.28;;
41643;SDS011;44236;48.098;11.582;2023-06-22T01:04:13;12.95;;;3.83;;
41643;SDS011;44236;48.098;11.582;2023-06-22T01:06:41;14.13;;;3.65;;
41643;SDS011;44236;48.098;11.582;2023-06-22T01:09:22;7.32;;;3.83;;
41643;SDS011;44236;48.098;11.582;2023-06-22T01:11:57;9.05;;;3.17;;
41643;SDS011;44236;48.098;11.582;2023-06-22T01:14:35;12.60;;;3.47;;
41643;SDS011;44236;48.098;11.582;2023-06-22T01:17:03;8.90;;;3.10;;
41643;SDS011;44236;48.098;11.582;2023-06-22T01:21:57;12.45;;;3.63;;
41643;SDS011;44236;48.098;11.582;2023-06-22T01:32:29;8.68;;;3.25;;
41643;SDS011;44236;48.098;11.582;2023-06-22T01:34:58;7.82;;;3.42;;
41643;SDS011;44236;48.098;11.582;2023-06-22T01:37:26;10.65;;;3.92;;
41643;SDS011;44236;48.098;11.582;2023-06-22T01:39:57;9.50;;;3.22;;
41643;SDS011;44236;48.098;11.582;2023-06-22T01:42:24;11.13;;;3.25;;
41643;SDS011;44236;48.098;11.582;2023-06-22T01:44:51;7.03;;;3.20;;
41643;SDS011;44236;48.098;11.582;2023-06-22T01:47:18;7.47;;;3.83;;
41643;SDS011;44236;48.098;11.582;2023-06-22T01:49:45;11.30;;;3.90;;
41643;SDS011;44236;48.098;11.582;2023-06-22T01:52:11;7.85;;;2.85;;
41643;SDS011;44236;48.098;11.582;2023-06-22T01:54:37;10.68;;;3.95;;
41643;SDS011;44236;48.098;11.582;2023-06-22T01:57:05;9.73;;;3.22;;
41643;SDS011;44236;48.098;11.582;2023-06-22T01:59:32;8.23;;;3.38;;
41643;SDS011;44236;48.098;11.582;2023-06-22T02:02:04;13.40;;;3.22;;
41643;SDS011;44236;48.098;11.582;2023-06-22T02:04:44;11.35;;;3.05;;
41643;SDS011;44236;48.098;11.582;2023-06-22T02:07:16;8.70;;;3.72;;
41643;SDS011;44236;48.098;11.582;2023-06-22T02:09:44;11.85;;;4.30;;
41643;SDS011;44236;48.098;11.582;2023-06-22T02:12:12;12.13;;;3.53;;
41643;SDS011;44236;48.098;11.582;2023-06-22T02:14:40;10.35;;;3.83;;
41643;SDS011;44236;48.098;11.582;2023-06-22T02:17:07;6.15;;;3.38;;
41643;SDS011;44236;48.098;11.582;2023-06-22T02:19:37;12.40;;;3.72;;
41643;SDS011;44236;48.098;11.582;2023-06-22T02:22:04;12.13;;;3.97;;
41643;SDS011;44236;48.098;11.582;2023-06-22T02:24:30;10.15;;;3.83;;
41643;SDS011;44236;48.098;11.582;2023-06-22T02:27:00;17.38;;;3.65;;
41643;SDS011;44236;48.098;11.582;2023-06-22T02:29:27;13.30;;;3.80;;
41643;SDS011;44236;48.098;11.582;2023-06-22T02:31:53;10.73;;;4.13;;
41643;SDS011;44236;48.098;11.582;2023-06-22T02:34:19;11.50;;;3.63;;
41643;SDS011;44236;48.098;11.582;2023-06-22T02:36:46;16.00;;;4.00;;
41643;SDS011;44236;48.098;11.582;2023-06-22T02:39:15;13.57;;;3.58;;
41643;SDS011;44236;48.098;11.582;2023-06-22T02:41:45;10.10;;;3.78;;
41643;SDS011;44236;48.098;11.582;2023-06-22T02:44:11;14.68;;;4.75;;
41643;SDS011;44236;48.098;11.582;2023-06-22T02:46:36;10.13;;;4.00;;
41643;SDS011;44236;48.098;11.582;2023-06-22T02:49:02;9.57;;;3.75;;
41643;SDS011;44236;48.098;11.582;2023-06-22T02:51:28;9.15;;;4.18;;
41643;SDS011;44236;48.098;11.582;2023-06-22T02:53:56;9.13;;;3.83;;
41643;SDS011;44236;48.098;11.582;2023-06-22T02:56:22;10.88;;;4.82;;
41643;SDS011;44236;48.098;11.582;2023-06-22T02:58:50;9.27;;;4.28;;
41643;SDS011;44236;48.098;11.582;2023-06-22T03:01:16;10.13;;;3.90;;
41643;SDS011;44236;48.098;11.582;2023-06-22T03:03:41;11.45;;;3.60;;
41643;SDS011;44236;48.098;11.582;2023-06-22T03:06:07;10.45;;;4.43;;
41643;SDS011;44236;48.098;11.582;2023-06-22T03:08:33;18.05;;;5.25;;
41643;SDS011;44236;48.098;11.582;2023-06-22T03:10:59;14.85;;;4.05;;
41643;SDS011;44236;48.098;11.582;2023-06-22T03:13:24;10.95;;;4.35;;
41643;SDS011;44236;48.098;11.582;2023-06-22T03:15:52;6.65;;;4.00;;
41643;SDS011;44236;48.098;11.582;2023-06-22T03:18:17;11.68;;;4.70;;
41643;SDS011;44236;48.098;11.582;2023-06-22T03:20:43;11.57;;;4.15;;
41643;SDS011;44236;48.098;11.582;2023-06-22T03:23:09;13.55;;;4.55;;
41643;SDS011;44236;48.098;11.582;2023-06-22T03:25:34;8.45;;;4.05;;
41643;SDS011;44236;48.098;11.582;2023-06-22T03:28:00;9.57;;;4.35;;
41643;SDS011;44236;48.098;11.582;2023-06-22T03:30:26;13.63;;;4.13;;
41643;SDS011;44236;48.098;11.582;2023-06-22T03:32:51;11.30;;;3.83;;
41643;SDS011;44236;48.098;11.582;2023-06-22T03:35:17;12.63;;;4.35;;
41643;SDS011;44236;48.098;11.582;2023-06-22T03:37:43;7.50;;;3.67;;
41643;SDS011;44236;48.098;11.582;2023-06-22T03:40:08;13.23;;;4.43;;
41643;SDS011;44236;48.098;11.582;2023-06-22T03:42:34;10.23;;;4.18;;
41643;SDS011;44236;48.098;11.582;2023-06-22T03:45:03;8.38;;;4.10;;
41643;SDS011;44236;48.098;11.582;2023-06-22T03:47:29;10.48;;;4.25;;
41643;SDS011;44236;48.098;11.582;2023-06-22T03:49:55;7.63;;;3.30;;
41643;SDS011;44236;48.098;11.582;2023-06-22T03:52:21;9.50;;;3.60;;
41643;SDS011;44236;48.098;11.582;2023-06-22T03:54:47;9.07;;;4.45;;
41643;SDS011;44236;48.098;11.582;2023-06-22T03:57:13;10.27;;;4.30;;
41643;SDS011;44236;48.098;11.582;2023-06-22T03:59:39;10.52;;;4.25;;
41643;SDS011;44236;48.098;11.582;2023-06-22T04:02:04;11.13;;;4.53;;
41643;SDS011;44236;48.098;11.582;2023-06-22T04:04:30;8.07;;;3.95;;
41643;SDS011;44236;48.098;11.582;2023-06-22T04:06:55;14.93;;;4.82;;
41643;SDS011;44236;48.098;11.582;2023-06-22T04:09:21;16.73;;;5.30;;
41643;SDS011;44236;48.098;11.582;2023-06-22T04:11:47;11.55;;;5.05;;
41643;SDS011;44236;48.098;11.582;2023-06-22T04:14:13;10.30;;;4.53;;
41643;SDS011;44236;48.098;11.582;2023-06-22T04:16:38;13.32;;;5.03;;
41643;SDS011;44236;48.098;11.582;2023-06-22T04:19:04;8.68;;;4.80;;
41643;SDS011;44236;48.098;11.582;2023-06-22T04:21:29;10.65;;;4.45;;
41643;SDS011;44236;48.098;11.582;2023-06-22T04:23:55;15.88;;;4.80;;
41643;SDS011;44236;48.098;11.582;2023-06-22T04:26:20;9.52;;;4.55;;
41643;SDS011;44236;48.098;11.582;2023-06-22T04:28:47;8.60;;;4.22;;
41643;SDS011;44236;48.098;11.582;2023-06-22T04:31:17;11.65;;;5.05;;
41643;SDS011;44236;48.098;11.582;2023-06-22T04:33:44;12.70;;;5.15;;
41643;SDS011;44236;48.098;11.582;2023-06-22T04:36:10;9.70;;;4.78;;
41643;SDS011;44236;48.098;11.582;2023-06-22T04:38:38;11.90;;;4.82;;
41643;SDS011;44236;48.098;11.582;2023-06-22T04:41:04;12.02;;;5.82;;
41643;SDS011;44236;48.098;11.582;2023-06-22T04:43:29;14.10;;;5.07;;
41643;SDS011;44236;48.098;11.582;2023-06-22T04:45:56;16.80;;;6.22;;
41643;SDS011;44236;48.098;11.582;2023-06-22T04:48:28;14.40;;;6.35;;
41643;SDS011;44236;48.098;11.582;2023-06-22T04:51:01;15.50;;;6.07;;
41643;SDS011;44236;48.098;11.582;2023-06-22T04:53:28;14.48;;;5.90;;
41643;SDS011;44236;48.098;11.582;2023-06-22T04:55:54;18.45;;;5.78;;
41643;SDS011;44236;48.098;11.582;2023-06-22T04:58:20;15.70;;;5.75;;
41643;SDS011;44236;48.098;11.582;2023-06-22T05:00:46;21.73;;;7.15;;
41643;SDS011;44236;48.098;11.582;2023-06-22T05:03:12;12.93;;;6.70;;
41643;SDS011;44236;48.098;11.582;2023-06-22T05:05:37;13.52;;;6.18;;
41643;SDS011;44236;48.098;11.582;2023-06-22T05:08:04;14.23;;;6.50;;
41643;SDS011;44236;48.098;11.582;2023-06-22T05:10:31;13.43;;;6.85;;
41643;SDS011;44236;48.098;11.582;2023-06-22T05:12:58;15.02;;;5.97;;
41643;SDS011;44236;48.098;11.582;2023-06-22T05:15:24;18.77;;;6.78;;
41643;SDS011;44236;48.098;11.582;2023-06-22T05:17:53;13.38;;;5.97;;
41643;SDS011;44236;48.098;11.582;2023-06-22T05:20:18;17.13;;;6.63;;
41643;SDS011;44236;48.098;11.582;2023-06-22T05:22:44;20.88;;;7.68;;
41643;SDS011;44236;48.098;11.582;2023-06-22T05:25:10;14.73;;;6.40;;
41643;SDS011;44236;48.098;11.582;2023-06-22T05:27:36;11.60;;;5.97;;
41643;SDS011;44236;48.098;11.582;2023-06-22T05:30:06;12.43;;;5.90;;
41643;SDS011;44236;48.098;11.582;2023-06-22T05:32:32;13.77;;;6.22;;
41643;SDS011;44236;48.098;11.582;2023-06-22T05:34:58;14.05;;;6.85;;
41643;SDS011;44236;48.098;11.582;2023-06-22T05:37:24;16.38;;;7.65;;
41643;SDS011;44236;48.098;11.582;2023-06-22T05:39:50;16.05;;;6.00;;
41643;SDS011;44236;48.098;11.582;2023-06-22T05:42:16;12.55;;;5.13;;
41643;SDS011;44236;48.098;11.582;2023-06-22T05:44:42;14.02;;;6.40;;
41643;SDS011;44236;48.098;11.582;2023-06-22T05:47:07;15.25;;;4.88;;
41643;SDS011;44236;48.098;11.582;2023-06-22T05:49:33;8.95;;;4.53;;
41643;SDS011;44236;48.098;11.582;2023-06-22T05:51:59;10.98;;;4.25;;
41643;SDS011;44236;48.098;11.582;2023-06-22T05:54:25;9.93;;;4.03;;
41643;SDS011;44236;48.098;11.582;2023-06-22T05:56:52;8.90;;;3.72;;
41643;SDS011;44236;48.098;11.582;2023-06-22T05:59:18;10.32;;;5.20;;
41643;SDS011;44236;48.098;11.582;2023-06-22T06:01:44;13.57;;;3.72;;
41643;SDS011;44236;48.098;11.582;2023-06-22T06:04:09;9.00;;;4.53;;
41643;SDS011;44236;48.098;11.582;2023-06-22T06:06:35;9.73;;;4.47;;
41643;SDS011;44236;48.098;11.582;2023-06-22T06:09:05;8.70;;;3.70;;
41643;SDS011;44236;48.098;11.582;2023-06-22T06:11:30;8.57;;;3.22;;
41643;SDS011;44236;48.098;11.582;2023-06-22T06:13:56;6.38;;;3.00;;
41643;SDS011;44236;48.098;11.582;2023-06-22T06:16:22;6.53;;;4.00;;
41643;SDS011;44236;48.098;11.582;2023-06-22T06:18:48;13.05;;;3.67;;
41643;SDS011;44236;48.098;11.582;2023-06-22T06:21:15;10.65;;;3.40;;
41643;SDS011;44236;48.098;11.582;2023-06-22T06:23:41;6.10;;;3.20;;
41643;SDS011;44236;48.098;11.582;2023-06-22T06:26:07;9.20;;;3.65;;
41643;SDS011;44236;48.098;11.582;2023-06-22T06:28:33;5.90;;;3.25;;
41643;SDS011;44236;48.098;11.582;2023-06-22T06:30:59;10.02;;;3.40;;
41643;SDS011;44236;48.098;11.582;2023-06-22T06:33:24;9.88;;;4.88;;
41643;SDS011;44236;48.098;11.582;2023-06-22T06:35:50;10.55;;;4.68;;
41643;SDS011;44236;48.098;11.582;2023-06-22T06:38:16;9.35;;;4.28;;
41643;SDS011;44236;48.098;11.582;2023-06-22T06:40:41;10.65;;;4.18;;
41643;SDS011;44236;48.098;11.582;2023-06-22T06:43:07;13.82;;;5.80;;
41643;SDS011;44236;48.098;11.582;2023-06-22T06:45:32;11.15;;;4.72;;
41643;SDS011;44236;48.098;11.582;2023-06-22T06:47:59;10.32;;;4.68;;
41643;SDS011;44236;48.098;11.582;2023-06-22T06:50:25;9.23;;;4.57;;
41643;SDS011;44236;48.098;11.582;2023-06-22T06:52:51;11.35;;;4.63;;
41643;SDS011;44236;48.098;11.582;2023-06-22T06:55:16;10.48;;;4.82;;
41643;SDS011;44236;48.098;11.582;2023-06-22T06:57:44;7.88;;;3.88;;
41643;SDS011;44236;48.098;11.582;2023-06-22T07:00:13;9.90;;;4.57;;
41643;SDS011;44236;48.098;11.582;2023-06-22T07:02:40;10.30;;;4.00;;
41643;SDS011;44236;48.098;11.582;2023-06-22T07:05:07;12.27;;;4.60;;
41643;SDS011;44236;48.098;11.582;2023-06-22T07:07:33;9.77;;;3.97;;
41643;SDS011;44236;48.098;11.582;2023-06-22T07:09:59;8.23;;;4.32;;
41643;SDS011;44236;48.098;11.582;2023-06-22T07:12:25;7.72;;;4.00;;
41643;SDS011;44236;48.098;11.582;2023-06-22T07:14:51;7.97;;;4.57;;
41643;SDS011;44236;48.098;11.582;2023-06-22T07:17:17;11.40;;;4.18;;
41643;SDS011;44236;48.098;11.582;2023-06-22T07:19:43;8.57;;;4.05;;
41643;SDS011;44236;48.098;11.582;2023-06-22T07:22:09;7.60;;;3.88;;
41643;SDS011;44236;48.098;11.582;2023-06-22T07:24:34;8.45;;;3.90;;
41643;SDS011;44236;48.098;11.582;2023-06-22T07:27:00;9.23;;;3.45;;
41643;SDS011;44236;48.098;11.582;2023-06-22T07:29:27;7.45;;;4.28;;
41643;SDS011;44236;48.098;11.582;2023-06-22T07:31:52;8.93;;;3.58;;
41643;SDS011;44236;48.098;11.582;2023-06-22T07:34:19;11.00;;;4.30;;
41643;SDS011;44236;48.098;11.582;2023-06-22T07:36:44;8.13;;;3.90;;
41643;SDS011;44236;48.098;11.582;2023-06-22T07:39:11;7.72;;;4.22;;
41643;SDS011;44236;48.098;11.582;2023-06-22T07:41:38;7.38;;;3.92;;
41643;SDS011;44236;48.098;11.582;2023-06-22T07:44:04;13.25;;;5.15;;
41643;SDS011;44236;48.098;11.582;2023-06-22T07:46:31;8.32;;;4.45;;
41643;SDS011;44236;48.098;11.582;2023-06-22T07:48:57;9.77;;;4.53;;
41643;SDS011;44236;48.098;11.582;2023-06-22T07:51:22;9.00;;;4.20;;
41643;SDS011;44236;48.098;11.582;2023-06-22T07:53:49;11.02;;;4.65;;
41643;SDS011;44236;48.098;11.582;2023-06-22T07:56:14;7.72;;;4.07;;
41643;SDS011;44236;48.098;11.582;2023-06-22T07:58:44;8.57;;;3.50;;
41643;SDS011;44236;48.098;11.582;2023-06-22T08:01:11;10.13;;;4.10;;
41643;SDS011;44236;48.098;11.582;2023-06-22T08:03:37;8.25;;;4.72;;
41643;SDS011;44236;48.098;11.582;2023-06-22T08:06:04;10.05;;;4.68;;
41643;SDS011;44236;48.098;11.582;2023-06-22T08:08:30;9.18;;;4.07;;
41643;SDS011;44236;48.098;11.582;2023-06-22T08:10:56;8.65;;;5.05;;
41643;SDS011;44236;48.098;11.582;2023-06-22T08:13:22;11.23;;;4.65;;
41643;SDS011;44236;48.098;11.582;2023-06-22T08:15:48;19.00;;;5.05;;
41643;SDS011;44236;48.098;11.582;2023-06-22T08:18:14;12.10;;;5.30;;
41643;SDS011;44236;48.098;11.582;2023-06-22T08:20:40;19.70;;;5.07;;
41643;SDS011;44236;48.098;11.582;2023-06-22T08:23:06;9.15;;;4.45;;
41643;SDS011;44236;48.098;11.582;2023-06-22T08:25:32;13.88;;;4.82;;
41643;SDS011;44236;48.098;11.582;2023-06-22T08:27:59;12.00;;;5.00;;
41643;SDS011;44236;48.098;11.582;2023-06-22T08:30:25;9.70;;;5.03;;
41643;SDS011;44236;48.098;11.582;2023-06-22T08:32:51;11.30;;;5.13;;
41643;SDS011;44236;48.098;11.582;2023-06-22T08:35:16;13.02;;;5.10;;
41643;SDS011;44236;48.098;11.582;2023-06-22T08:37:42;13.63;;;4.95;;
41643;SDS011;44236;48.098;11.582;2023-06-22T08:40:08;12.88;;;5.57;;
41643;SDS011;44236;48.098;11.582;2023-06-22T08:42:35;9.60;;;5.32;;
41643;SDS011;44236;48.098;11.582;2023-06-22T08:45:01;15.52;;;5.43;;
41643;SDS011;44236;48.098;11.582;2023-06-22T08:47:27;15.15;;;5.15;;
41643;SDS011;44236;48.098;11.582;2023-06-22T08:49:53;13.85;;;5.57;;
41643;SDS011;44236;48.098;11.582;2023-06-22T08:52:19;9.80;;;4.32;;
41643;SDS011;44236;48.098;11.582;2023-06-22T08:54:45;10.48;;;4.35;;
41643;SDS011;44236;48.098;11.582;2023-06-22T08:57:11;7.72;;;4.13;;
41643;SDS011;44236;48.098;11.582;2023-06-22T08:59:37;9.55;;;3.97;;
41643;SDS011;44236;48.098;11.582;2023-06-22T09:02:03;9.65;;;5.07;;
41643;SDS011;44236;48.098;11.582;2023-06-22T09:04:28;13.18;;;4.28;;
41643;SDS011;44236;48.098;11.582;2023-06-22T09:06:54;8.82;;;4.55;;
41643;SDS011;44236;48.098;11.582;2023-06-22T09:09:20;11.43;;;4.57;;
41643;SDS011;44236;48.098;11.582;2023-06-22T09:11:47;14.90;;;5.15;;
41643;SDS011;44236;48.098;11.582;2023-06-22T09:14:12;9.18;;;4.63;;
41643;SDS011;44236;48.098;11.582;2023-06-22T09:16:38;15.05;;;5.47;;
41643;SDS011;44236;48.098;11.582;2023-06-22T09:19:04;10.23;;;4.53;;
41643;SDS011;44236;48.098;11.582;2023-06-22T09:21:29;11.80;;;4.97;;
41643;SDS011;44236;48.098;11.582;2023-06-22T09:23:56;9.50;;;4.47;;
41643;SDS011;44236;48.098;11.582;2023-06-22T09:26:22;11.30;;;4.85;;
41643;SDS011;44236;48.098;11.582;2023-06-22T09:28:48;9.73;;;4.68;;
41643;SDS011;44236;48.098;11.582;2023-06-22T09:31:14;9.02;;;4.38;;
41643;SDS011;44236;48.098;11.582;2023-06-22T09:33:41;7.07;;;4.30;;
41643;SDS011;44236;48.098;11.582;2023-06-22T09:36:07;8.65;;;5.13;;
41643;SDS011;44236;48.098;11.582;2023-06-22T09:38:36;10.90;;;4.70;;
41643;SDS011;44236;48.098;11.582;2023-06-22T09:41:02;11.10;;;4.35;;
41643;SDS011;44236;48.098;11.582;2023-06-22T09:43:28;9.27;;;5.10;;
41643;SDS011;44236;48.098;11.582;2023-06-22T09:45:54;10.77;;;5.10;;
41643;SDS011;44236;48.098;11.582;2023-06-22T09:48:20;11.35;;;4.60;;
41643;SDS011;44236;48.098;11.582;2023-06-22T09:50:46;15.00;;;5.43;;
41643;SDS011;44236;48.098;11.582;2023-06-22T09:53:11;8.02;;;4.50;;
41643;SDS011;44236;48.098;11.582;2023-06-22T09:55:37;7.97;;;4.20;;
41643;SDS011;44236;48.098;11.582;2023-06-22T09:58:03;11.27;;;4.90;;
41643;SDS011;44236;48.098;11.582;2023-06-22T10:00:28;7.50;;;3.97;;
41643;SDS011;44236;48.098;11.582;2023-06-22T10:02:54;9.65;;;4.72;;
41643;SDS011;44236;48.098;11.582;2023-06-22T10:05:20;9.43;;;4.95;;
41643;SDS011;44236;48.098;11.582;2023-06-22T10:07:46;12.50;;;5.32;;
41643;SDS011;44236;48.098;11.582;2023-06-22T10:10:13;9.52;;;4.55;;
41643;SDS011;44236;48.098;11.582;2023-06-22T10:12:42;9.85;;;4.53;;
41643;SDS011;44236;48.098;11.582;2023-06-22T10:17:36;10.73;;;5.22;;
41643;SDS011;44236;48.098;11.582;2023-06-22T10:20:02;10.10;;;4.53;;
41643;SDS011;44236;48.098;11.582;2023-06-22T10:22:37;11.73;;;4.50;;
41643;SDS011;44236;48.098;11.582;2023-06-22T10:25:06;12.73;;;4.30;;
41643;SDS011;44236;48.098;11.582;2023-06-22T10:27:33;10.23;;;4.70;;
41643;SDS011;44236;48.098;11.582;2023-06-22T10:29:59;11.38;;;5.18;;
41643;SDS011;44236;48.098;11.582;2023-06-22T10:32:24;8.60;;;4.60;;
41643;SDS011;44236;48.098;11.582;2023-06-22T10:34:53;7.38;;;4.07;;
41643;SDS011;44236;48.098;11.582;2023-06-22T10:37:19;9.63;;;4.80;;
41643;SDS011;44236;48.098;11.582;2023-06-22T10:39:45;10.35;;;4.28;;
41643;SDS011;44236;48.098;11.582;2023-06-22T10:42:11;9.50;;;4.78;;
41643;SDS011;44236;48.098;11.582;2023-06-22T10:44:37;7.30;;;4.10;;
41643;SDS011;44236;48.098;11.582;2023-06-22T10:47:06;8.02;;;4.43;;
41643;SDS011;44236;48.098;11.582;2023-06-22T10:49:35;11.73;;;4.53;;
41643;SDS011;44236;48.098;11.582;2023-06-22T10:52:02;11.68;;;4.68;;
41643;SDS011;44236;48.098;11.582;2023-06-22T10:54:28;9.73;;;4.18;;
41643;SDS011;44236;48.098;11.582;2023-06-22T10:56:54;10.88;;;4.90;;
41643;SDS011;44236;48.098;11.582;2023-06-22T10:59:20;11.23;;;4.47;;
41643;SDS011;44236;48.098;11.582;2023-06-22T11:01:48;12.13;;;4.20;;
41643;SDS011;44236;48.098;11.582;2023-06-22T11:04:14;7.07;;;4.05;;
41643;SDS011;44236;48.098;11.582;2023-06-22T11:06:39;11.52;;;4.10;;
41643;SDS011;44236;48.098;11.582;2023-06-22T11:09:05;10.38;;;4.32;;
41643;SDS011;44236;48.098;11.582;2023-06-22T11:11:31;7.88;;;3.95;;
41643;SDS011;44236;48.098;11.582;2023-06-22T11:13:57;9.85;;;4.35;;
41643;SDS011;44236;48.098;11.582;2023-06-22T11:16:23;8.13;;;3.83;;
41643;SDS011;44236;48.098;11.582;2023-06-22T11:18:48;11.20;;;4.57;;
41643;SDS011;44236;48.098;11.582;2023-06-22T11:21:14;8.50;;;4.07;;
41643;SDS011;44236;48.098;11.582;2023-06-22T11:23:41;10.00;;;4.57;;
41643;SDS011;44236;48.098;11.582;2023-06-22T11:26:07;7.53;;;3.80;;
41643;SDS011;44236;48.098;11.582;2023-06-22T11:28:33;7.88;;;3.80;;
41643;SDS011;44236;48.098;11.582;2023-06-22T11:30:58;7.95;;;3.95;;
41643;SDS011;44236;48.098;11.582;2023-06-22T11:33:25;11.00;;;4.28;;
41643;SDS011;44236;48.098;11.582;2023-06-22T11:35:50;11.65;;;4.50;;
41643;SDS011;44236;48.098;11.582;2023-06-22T11:38:16;9.35;;;4.95;;
41643;SDS011;44236;48.098;11.582;2023-06-22T11:40:42;11.70;;;5.15;;
41643;SDS011;44236;48.098;11.582;2023-06-22T11:43:08;10.60;;;4.55;;
41643;SDS011;44236;48.098;11.582;2023-06-22T11:45:33;12.25;;;4.80;;
41643;SDS011;44236;48.098;11.582;2023-06-22T11:47:59;12.80;;;4.45;;
41643;SDS011;44236;48.098;11.582;2023-06-22T11:50:24;8.55;;;4.93;;
41643;SDS011;44236;48.098;11.582;2023-06-22T11:52:50;8.98;;;4.72;;
41643;SDS011;44236;48.098;11.582;2023-06-22T11:55:17;11.25;;;3.95;;
41643;SDS011;44236;48.098;11.582;2023-06-22T11:57:54;15.10;;;5.00;;
41643;SDS011;44236;48.098;11.582;2023-06-22T12:00:21;9.93;;;4.85;;
41643;SDS011;44236;48.098;11.582;2023-06-22T12:02:48;10.05;;;4.35;;
41643;SDS011;44236;48.098;11.582;2023-06-22T12:05:16;15.43;;;5.15;;
41643;SDS011;44236;48.098;11.582;2023-06-22T12:07:43;11.10;;;4.55;;
41643;SDS011;44236;48.098;11.582;2023-06-22T12:10:08;10.38;;;3.70;;
41643;SDS011;44236;48.098;11.582;2023-06-22T12:12:34;10.57;;;4.43;;
41643;SDS011;44236;48.098;11.582;2023-06-22T12:15:00;11.52;;;4.55;;
41643;SDS011;44236;48.098;11.582;2023-06-22T12:17:28;11.75;;;4.13;;
41643;SDS011;44236;48.098;11.582;2023-06-22T12:19:54;10.68;;;4.93;;
41643;SDS011;44236;48.098;11.582;2023-06-22T12:22:20;12.73;;;4.63;;
41643;SDS011;44236;48.098;11.582;2023-06-22T12:24:46;10.07;;;4.47;;
41643;SDS011;44236;48.098;11.582;2023-06-22T12:27:11;8.98;;;4.43;;
41643;SDS011;44236;48.098;11.582;2023-06-22T12:29:37;9.35;;;4.43;;
41643;SDS011;44236;48.098;11.582;2023-06-22T12:32:03;12.02;;;4.60;;
41643;SDS011;44236;48.098;11.582;2023-06-22T12:34:29;9.77;;;4.40;;
41643;SDS011;44236;48.098;11.582;2023-06-22T12:36:54;8.73;;;4.32;;
41643;SDS011;44236;48.098;11.582;2023-06-22T12:39:20;9.35;;;4.30;;
41643;SDS011;44236;48.098;11.582;2023-06-22T12:41:45;9.45;;;4.72;;
41643;SDS011;44236;48.098;11.582;2023-06-22T12:44:11;8.73;;;3.90;;
41643;SDS011;44236;48.098;11.582;2023-06-22T12:46:37;13.00;;;5.03;;
41643;SDS011;44236;48.098;11.582;2023-06-22T12:49:03;7.82;;;3.83;;
41643;SDS011;44236;48.098;11.582;2023-06-22T12:51:29;8.27;;;4.07;;
41643;SDS011;44236;48.098;11.582;2023-06-22T12:53:55;12.65;;;4.43;;
41643;SDS011;44236;48.098;11.582;2023-06-22T12:56:21;10.48;;;4.50;;
41643;SDS011;44236;48.098;11.582;2023-06-22T12:58:47;10.43;;;4.18;;
41643;SDS011;44236;48.098;11.582;2023-06-22T13:01:13;8.38;;;3.80;;
41643;SDS011;44236;48.098;11.582;2023-06-22T13:03:39;8.43;;;3.78;;
41643;SDS011;44236;48.098;11.582;2023-06-22T13:06:04;10.25;;;4.57;;
41643;SDS011;44236;48.098;11.582;2023-06-22T13:08:30;11.63;;;4.55;;
41643;SDS011;44236;48.098;11.582;2023-06-22T13:10:56;12.27;;;4.57;;
41643;SDS011;44236;48.098;11.582;2023-06-22T13:13:25;10.10;;;4.07;;
41643;SDS011;44236;48.098;11.582;2023-06-22T13:15:52;8.95;;;4.07;;
41643;SDS011;44236;48.098;11.582;2023-06-22T13:18:19;10.23;;;4.63;;
41643;SDS011;44236;48.098;11.582;2023-06-22T13:20:44;9.80;;;4.13;;
41643;SDS011;44236;48.098;11.582;2023-06-22T13:23:10;12.65;;;4.00;;
41643;SDS011;44236;48.098;11.582;2023-06-22T13:25:36;7.68;;;4.03;;
41643;SDS011;44236;48.098;11.582;2023-06-22T13:28:02;9.07;;;4.05;;
41643;SDS011;44236;48.098;11.582;2023-06-22T13:30:28;17.00;;;4.88;;
41643;SDS011;44236;48.098;11.582;2023-06-22T13:32:53;12.35;;;4.80;;
41643;SDS011;44236;48.098;11.582;2023-06-22T13:35:19;9.20;;;4.18;;
41643;SDS011;44236;48.098;11.582;2023-06-22T13:37:44;12.77;;;5.03;;
41643;SDS011;44236;48.098;11.582;2023-06-22T13:40:10;12.10;;;4.60;;
41643;SDS011;44236;48.098;11.582;2023-06-22T13:42:36;12.48;;;5.05;;
41643;SDS011;44236;48.098;11.582;2023-06-22T13:45:02;14.98;;;5.15;;
41643;SDS011;44236;48.098;11.582;2023-06-22T13:47:29;11.07;;;4.78;;
41643;SDS011;44236;48.098;11.582;2023-06-22T13:49:55;14.60;;;5.38;;
41643;SDS011;44236;48.098;11.582;2023-06-22T13:52:22;17.58;;;5.43;;
41643;SDS011;44236;48.098;11.582;2023-06-22T13:54:48;11.20;;;5.30;;
41643;SDS011;44236;48.098;11.582;2023-06-22T13:57:13;19.52;;;6.63;;
41643;SDS011;44236;48.098;11.582;2023-06-22T13:59:39;15.40;;;6.18;;
41643;SDS011;44236;48.098;11.582;2023-06-22T14:02:05;17.73;;;6.00;;
41643;SDS011;44236;48.098;11.582;2023-06-22T14:04:31;14.40;;;5.80;;
41643;SDS011;44236;48.098;11.582;2023-06-22T14:06:57;12.85;;;5.63;;
41643;SDS011;44236;48.098;11.582;2023-06-22T14:09:22;18.23;;;6.95;;
41643;SDS011;44236;48.098;11.582;2023-06-22T14:11:48;19.45;;;6.53;;
41643;SDS011;44236;48.098;11.582;2023-06-22T14:14:14;16.30;;;6.45;;
41643;SDS011;44236;48.098;11.582;2023-06-22T14:16:39;15.15;;;5.93;;
41643;SDS011;44236;48.098;11.582;2023-06-22T14:19:05;16.67;;;6.72;;
41643;SDS011;44236;48.098;11.582;2023-06-22T14:21:30;15.57;;;6.60;;
41643;SDS011;44236;48.098;11.582;2023-06-22T14:23:56;20.02;;;6.57;;
41643;SDS011;44236;48.098;11.582;2023-06-22T14:26:21;20.67;;;6.68;;
41643;SDS011;44236;48.098;11.582;2023-06-22T14:28:47;16.83;;;5.75;;
41643;SDS011;44236;48.098;11.582;2023-06-22T14:31:15;19.17;;;6.35;;
41643;SDS011;44236;48.098;11.582;2023-06-22T14:33:44;14.95;;;5.93;;